createdAt,value
2017-09-16T00:02:18.051Z,3.53
2017-09-16T00:04:45.918Z,3.58
2017-09-16T00:07:13.786Z,3.60
2017-09-16T00:09:41.658Z,5.95
2017-09-16T00:12:09.386Z,4.70
2017-09-16T00:14:37.182Z,4.10
2017-09-16T00:17:04.887Z,4.40
2017-09-16T00:19:33.429Z,3.55
2017-09-16T00:22:01.297Z,3.60
2017-09-16T00:24:29.163Z,4.45
2017-09-16T00:26:56.866Z,4.95
2017-09-16T00:29:25.513Z,5.90
2017-09-16T00:31:53.234Z,4.87
2017-09-16T00:34:20.959Z,5.37
2017-09-16T00:36:48.706Z,4.60
2017-09-16T00:39:16.573Z,5.30
2017-09-16T00:41:44.440Z,4.25
2017-09-16T00:44:12.308Z,4.12
2017-09-16T00:46:40.174Z,4.97
2017-09-16T00:49:07.883Z,4.80
2017-09-16T00:51:36.523Z,5.55
2017-09-16T00:54:04.393Z,4.40
2017-09-16T00:56:32.263Z,5.30
2017-09-16T00:58:59.986Z,4.60
2017-09-16T01:01:27.687Z,3.60
2017-09-16T01:06:30.179Z,4.40
2017-09-16T01:08:57.921Z,4.25
2017-09-16T01:11:25.814Z,3.22
2017-09-16T01:13:53.678Z,3.28
2017-09-16T01:16:21.394Z,4.00
2017-09-16T01:18:49.153Z,4.35
2017-09-16T01:21:17.673Z,3.72
2017-09-16T01:23:45.438Z,4.60
2017-09-16T01:26:13.322Z,3.80
2017-09-16T01:28:41.189Z,3.47
2017-09-16T01:31:09.056Z,4.15
2017-09-16T01:33:36.844Z,4.20
2017-09-16T01:36:04.630Z,5.43
2017-09-16T01:38:33.167Z,4.87
2017-09-16T01:41:01.038Z,5.60
2017-09-16T01:43:28.766Z,4.90
2017-09-16T01:45:56.481Z,5.50
2017-09-16T01:48:24.333Z,6.95
2017-09-16T01:50:52.199Z,7.30
2017-09-16T01:53:19.901Z,7.15
2017-09-16T01:55:48.387Z,6.22
2017-09-16T01:58:16.866Z,5.45
2017-09-16T02:00:45.354Z,10.55
2017-09-16T02:03:13.996Z,7.75
2017-09-16T02:05:41.863Z,6.30
2017-09-16T02:08:09.734Z,7.68
2017-09-16T02:10:37.438Z,6.43
2017-09-16T02:13:06.081Z,8.13
2017-09-16T02:15:33.947Z,7.05
2017-09-16T02:18:01.666Z,6.47
2017-09-16T02:20:29.381Z,9.25
2017-09-16T02:22:57.157Z,8.52
2017-09-16T02:25:25.005Z,5.95
2017-09-16T02:27:52.871Z,6.28
2017-09-16T02:30:20.587Z,5.70
2017-09-16T02:32:48.401Z,5.37
2017-09-16T02:35:16.101Z,5.35
2017-09-16T02:37:44.566Z,4.57
2017-09-16T02:40:12.415Z,5.50
2017-09-16T02:42:40.119Z,4.93
2017-09-16T02:45:08.659Z,6.12
2017-09-16T02:47:36.526Z,5.70
2017-09-16T02:50:04.398Z,5.30
2017-09-16T02:52:32.261Z,5.80
2017-09-16T02:55:00.130Z,4.78
2017-09-16T02:57:28.025Z,4.15
2017-09-16T02:59:55.864Z,4.60
2017-09-16T03:02:23.578Z,4.68
2017-09-16T03:04:52.058Z,4.70
2017-09-16T03:07:20.529Z,4.72
2017-09-16T03:09:48.994Z,4.80
2017-09-16T03:12:16.702Z,4.00
2017-09-16T03:14:44.399Z,4.18
2017-09-16T03:17:12.102Z,4.55
2017-09-16T03:19:40.578Z,5.70
2017-09-16T03:22:09.126Z,5.30
2017-09-16T03:24:36.994Z,6.18
2017-09-16T03:27:04.702Z,6.37
2017-09-16T03:29:33.178Z,5.32
2017-09-16T03:32:01.656Z,6.47
2017-09-16T03:34:30.306Z,7.95
2017-09-16T03:36:58.010Z,5.82
2017-09-16T03:39:26.655Z,5.95
2017-09-16T03:41:54.523Z,6.32
2017-09-16T03:44:22.390Z,6.80
2017-09-16T03:46:50.181Z,5.75
2017-09-16T03:49:18.658Z,6.75
2017-09-16T03:51:46.503Z,6.53
2017-09-16T03:54:14.371Z,4.82
2017-09-16T03:56:42.244Z,7.97
2017-09-16T03:59:09.954Z,8.57
2017-09-16T04:01:49.539Z,5.70
2017-09-16T04:04:17.247Z,7.25
2017-09-16T04:06:45.717Z,6.80
2017-09-16T04:09:13.421Z,5.50
2017-09-16T04:11:41.135Z,5.85
2017-09-16T04:14:08.842Z,7.82
2017-09-16T04:16:36.647Z,4.78
2017-09-16T04:19:07.748Z,5.25
2017-09-16T04:21:39.092Z,5.50
2017-09-16T04:24:10.290Z,6.00
2017-09-16T04:26:41.306Z,6.05
2017-09-16T04:29:13.367Z,4.28
2017-09-16T04:31:45.799Z,6.37
2017-09-16T04:34:17.949Z,8.57
2017-09-16T04:36:49.397Z,5.80
2017-09-16T04:39:20.290Z,6.87
2017-09-16T04:41:51.527Z,6.45
2017-09-16T04:44:24.417Z,5.85
2017-09-16T04:46:57.392Z,6.35
2017-09-16T04:49:31.518Z,7.28
2017-09-16T04:52:04.695Z,6.20
2017-09-16T04:54:37.506Z,7.87
2017-09-16T04:57:10.837Z,7.57
2017-09-16T04:59:44.130Z,5.82
2017-09-16T05:02:21.841Z,6.35
2017-09-16T05:04:49.599Z,10.20
2017-09-16T05:07:18.107Z,10.85
2017-09-16T05:09:46.583Z,6.53
2017-09-16T05:12:15.059Z,8.52
2017-09-16T05:14:48.466Z,7.60
2017-09-16T05:17:20.965Z,5.87
2017-09-16T05:19:53.334Z,5.70
2017-09-16T05:22:25.194Z,6.53
2017-09-16T05:24:57.174Z,6.20
2017-09-16T05:27:28.845Z,6.37
2017-09-16T05:30:00.450Z,6.70
2017-09-16T05:32:32.136Z,5.95
2017-09-16T05:35:03.733Z,5.50
2017-09-16T05:37:35.185Z,4.43
2017-09-16T05:40:03.040Z,6.82
2017-09-16T05:42:30.742Z,6.20
2017-09-16T05:44:59.214Z,5.62
2017-09-16T05:47:26.913Z,4.43
2017-09-16T05:49:54.717Z,5.12
2017-09-16T05:52:22.582Z,4.05
2017-09-16T05:54:50.453Z,5.47
2017-09-16T05:57:18.185Z,7.07
2017-09-16T05:59:45.886Z,6.85
2017-09-16T06:02:13.743Z,6.87
2017-09-16T06:04:41.467Z,6.40
2017-09-16T06:07:09.273Z,5.93
2017-09-16T06:09:37.071Z,7.37
2017-09-16T06:12:05.677Z,6.95
2017-09-16T06:14:33.426Z,5.95
2017-09-16T06:17:02.074Z,6.60
2017-09-16T06:19:30.764Z,8.30
2017-09-16T06:21:58.627Z,8.02
2017-09-16T06:24:26.496Z,8.32
2017-09-16T06:26:54.206Z,7.03
2017-09-16T06:29:22.776Z,8.23
2017-09-16T06:31:51.270Z,7.70
2017-09-16T06:34:19.910Z,9.07
2017-09-16T06:36:47.628Z,8.13
2017-09-16T06:39:15.354Z,7.60
2017-09-16T06:41:43.065Z,8.93
2017-09-16T06:44:10.867Z,9.23
2017-09-16T06:46:38.739Z,7.60
2017-09-16T06:49:06.602Z,8.05
2017-09-16T06:51:34.314Z,8.73
2017-09-16T06:54:02.951Z,10.77
2017-09-16T06:56:30.818Z,9.90
2017-09-16T06:58:58.549Z,10.85
2017-09-16T07:01:26.263Z,10.52
2017-09-16T07:03:53.986Z,10.88
2017-09-16T07:06:21.713Z,9.10
2017-09-16T07:08:50.360Z,10.82
2017-09-16T07:11:18.227Z,7.80
2017-09-16T07:13:46.095Z,7.65
2017-09-16T07:16:13.962Z,7.97
2017-09-16T07:18:42.464Z,7.43
2017-09-16T07:21:10.310Z,10.45
2017-09-16T07:23:38.043Z,9.00
2017-09-16T07:26:05.761Z,9.55
2017-09-16T07:28:33.606Z,10.52
2017-09-16T07:31:01.331Z,7.60
2017-09-16T07:33:29.083Z,7.07
2017-09-16T07:35:57.571Z,8.20
2017-09-16T07:38:25.352Z,8.93
2017-09-16T07:40:53.112Z,8.27
2017-09-16T07:43:21.899Z,6.87
2017-09-16T07:45:49.802Z,8.65
2017-09-16T07:48:17.570Z,8.73
2017-09-16T07:50:45.436Z,7.62
2017-09-16T07:53:13.302Z,8.63
2017-09-16T07:55:41.170Z,6.30
2017-09-16T07:58:08.895Z,6.20
2017-09-16T08:00:36.704Z,7.12
2017-09-16T08:03:04.569Z,6.47
2017-09-16T08:05:32.302Z,6.47
2017-09-16T08:08:00.101Z,7.87
2017-09-16T08:10:28.072Z,7.50
2017-09-16T08:12:56.037Z,7.80
2017-09-16T08:15:23.905Z,7.20
2017-09-16T08:17:51.873Z,7.75
2017-09-16T08:20:19.741Z,9.23
2017-09-16T08:22:47.608Z,7.90
2017-09-16T08:25:15.475Z,7.55
2017-09-16T08:27:43.344Z,8.80
2017-09-16T08:30:11.210Z,8.95
2017-09-16T08:32:38.950Z,9.13
2017-09-16T08:35:06.739Z,10.35
2017-09-16T08:37:34.606Z,10.63
2017-09-16T08:40:02.330Z,8.45
2017-09-16T08:42:30.137Z,8.75
2017-09-16T08:44:58.004Z,8.93
2017-09-16T08:47:25.871Z,8.30
2017-09-16T08:49:53.745Z,9.38
2017-09-16T08:52:21.606Z,9.45
2017-09-16T08:54:49.476Z,10.15
2017-09-16T08:57:17.341Z,8.88
2017-09-16T08:59:45.207Z,7.87
2017-09-16T09:02:13.076Z,7.95
2017-09-16T09:04:40.943Z,7.95
2017-09-16T09:07:08.809Z,9.93
2017-09-16T09:09:36.677Z,7.93
2017-09-16T09:12:04.543Z,6.80
2017-09-16T09:14:32.414Z,7.60
2017-09-16T09:17:00.278Z,8.30
2017-09-16T09:19:28.024Z,9.15
2017-09-16T09:21:55.727Z,7.72
2017-09-16T09:24:23.581Z,8.70
2017-09-16T09:26:51.440Z,8.75
2017-09-16T09:29:19.308Z,8.25
2017-09-16T09:31:47.175Z,8.02
2017-09-16T09:34:14.896Z,8.02
2017-09-16T09:36:42.634Z,7.50
2017-09-16T09:39:10.471Z,7.75
2017-09-16T09:41:38.338Z,9.10
2017-09-16T09:44:06.205Z,7.60
2017-09-16T09:46:34.072Z,9.73
2017-09-16T09:49:01.940Z,8.60
2017-09-16T09:51:29.807Z,7.70
2017-09-16T09:53:57.675Z,7.90
2017-09-16T09:56:25.541Z,7.80
2017-09-16T09:58:53.409Z,8.35
2017-09-16T10:01:21.276Z,7.15
2017-09-16T10:03:49.143Z,7.57
2017-09-16T10:06:17.010Z,7.78
2017-09-16T10:08:44.877Z,7.70
2017-09-16T10:11:12.745Z,7.60
2017-09-16T10:13:40.612Z,8.00
2017-09-16T10:16:08.480Z,6.97
2017-09-16T10:18:36.346Z,6.05
2017-09-16T10:21:04.214Z,6.07
2017-09-16T10:23:32.082Z,5.72
2017-09-16T10:25:59.949Z,5.32
2017-09-16T10:28:27.819Z,5.40
2017-09-16T10:30:55.683Z,5.30
2017-09-16T10:33:23.551Z,5.87
2017-09-16T10:35:51.418Z,5.07
2017-09-16T10:38:19.286Z,4.65
2017-09-16T10:40:47.153Z,4.20
2017-09-16T10:43:15.021Z,3.70
2017-09-16T10:45:42.890Z,4.25
2017-09-16T10:48:10.755Z,3.80
2017-09-16T10:50:38.621Z,4.32
2017-09-16T10:53:06.488Z,5.00
2017-09-16T10:55:34.356Z,4.00
2017-09-16T10:58:02.531Z,4.50
2017-09-16T11:00:30.322Z,4.53
2017-09-16T11:02:58.883Z,4.15
2017-09-16T11:05:26.749Z,4.10
2017-09-16T11:07:54.618Z,4.65
2017-09-16T11:10:22.485Z,4.53
2017-09-16T11:12:50.354Z,5.75
2017-09-16T11:15:18.220Z,5.43
2017-09-16T11:17:46.086Z,4.70
2017-09-16T11:20:13.951Z,4.82
2017-09-16T11:22:41.822Z,5.32
2017-09-16T11:25:09.686Z,5.70
2017-09-16T11:27:37.552Z,5.05
2017-09-16T11:30:05.420Z,5.18
2017-09-16T11:32:33.287Z,5.72
2017-09-16T11:35:01.811Z,4.95
2017-09-16T11:37:30.287Z,6.25
2017-09-16T11:39:58.937Z,6.07
2017-09-16T11:42:26.805Z,6.50
2017-09-16T11:44:54.672Z,5.80
2017-09-16T11:47:22.539Z,5.05
2017-09-16T11:49:50.406Z,3.90
2017-09-16T11:52:18.274Z,3.55
2017-09-16T11:54:46.148Z,3.85
2017-09-16T11:57:14.009Z,3.58
2017-09-16T11:59:41.875Z,2.25
2017-09-16T12:02:09.744Z,2.05
2017-09-16T12:04:37.610Z,1.55
2017-09-16T12:07:05.478Z,1.70
2017-09-16T12:09:33.344Z,1.30
2017-09-16T12:12:01.213Z,1.30
2017-09-16T12:14:29.080Z,1.60
2017-09-16T12:16:59.371Z,1.42
2017-09-16T12:19:30.215Z,1.50
2017-09-16T12:22:00.131Z,1.65
2017-09-16T12:24:30.296Z,1.60
2017-09-16T12:27:00.575Z,1.92
2017-09-16T12:29:31.663Z,2.28
2017-09-16T12:32:02.584Z,1.65
2017-09-16T12:34:32.774Z,1.80
2017-09-16T12:37:03.577Z,1.80
2017-09-16T12:39:35.780Z,1.60
2017-09-16T12:42:09.498Z,1.40
2017-09-16T12:44:40.379Z,1.40
2017-09-16T12:47:11.510Z,1.42
2017-09-16T12:49:42.096Z,1.83
2017-09-16T12:52:15.144Z,1.75
2017-09-16T12:54:50.121Z,1.40
2017-09-16T12:57:23.236Z,1.48
2017-09-16T12:59:55.934Z,1.60
2017-09-16T13:02:28.665Z,1.50
2017-09-16T13:05:01.265Z,1.50
2017-09-16T13:07:33.731Z,1.70
2017-09-16T13:10:06.452Z,1.92
2017-09-16T13:12:39.867Z,1.55
2017-09-16T13:15:14.005Z,1.52
2017-09-16T13:17:46.230Z,1.90
2017-09-16T13:20:18.364Z,1.70
2017-09-16T13:22:49.264Z,2.60
2017-09-16T13:25:20.905Z,2.10
2017-09-16T13:27:51.487Z,2.55
2017-09-16T13:30:25.691Z,2.37
2017-09-16T13:32:59.426Z,2.33
2017-09-16T13:35:32.686Z,2.55
2017-09-16T13:38:07.141Z,2.35
2017-09-16T13:40:34.881Z,3.05
2017-09-16T13:43:02.618Z,2.70
2017-09-16T13:45:31.095Z,2.65
2017-09-16T13:47:59.582Z,2.50
2017-09-16T13:50:28.071Z,1.55
2017-09-16T13:52:55.779Z,1.80
2017-09-16T13:55:23.499Z,1.52
2017-09-16T13:57:51.211Z,1.80
2017-09-16T14:00:18.922Z,2.30
2017-09-16T14:02:47.404Z,1.87
2017-09-16T14:05:15.916Z,1.80
2017-09-16T14:07:43.659Z,1.60
2017-09-16T14:10:11.399Z,1.70
2017-09-16T14:12:39.891Z,1.77
2017-09-16T14:15:08.377Z,1.85
2017-09-16T14:17:36.857Z,1.67
2017-09-16T14:20:05.334Z,1.92
2017-09-16T14:22:33.816Z,1.90
2017-09-16T14:25:02.300Z,1.80
2017-09-16T14:27:30.774Z,2.05
2017-09-16T14:29:59.255Z,2.08
2017-09-16T14:32:27.751Z,2.25
2017-09-16T14:34:56.228Z,1.80
2017-09-16T14:37:24.694Z,1.80
2017-09-16T14:39:52.398Z,2.00
2017-09-16T14:42:20.123Z,2.00
2017-09-16T14:44:47.831Z,1.80
2017-09-16T14:47:15.544Z,2.35
2017-09-16T14:49:43.257Z,2.53
2017-09-16T14:52:10.970Z,1.90
2017-09-16T14:54:38.678Z,2.33
2017-09-16T14:57:06.396Z,1.80
2017-09-16T14:59:34.112Z,1.90
2017-09-16T15:02:01.854Z,2.30
2017-09-16T15:04:30.343Z,2.45
2017-09-16T15:06:58.055Z,2.80
2017-09-16T15:09:25.780Z,3.47
2017-09-16T15:11:53.492Z,2.65
2017-09-16T15:14:21.215Z,3.65
2017-09-16T15:16:48.922Z,3.50
2017-09-16T15:19:16.639Z,2.72
2017-09-16T15:21:44.347Z,2.87
2017-09-16T15:24:12.061Z,2.70
2017-09-16T15:26:39.770Z,2.85
2017-09-16T15:29:07.479Z,2.47
2017-09-16T15:31:35.190Z,2.83
2017-09-16T15:34:02.964Z,3.25
2017-09-16T15:36:30.683Z,3.22
2017-09-16T15:38:58.392Z,2.65
2017-09-16T15:41:26.145Z,2.60
2017-09-16T15:43:53.850Z,3.05
2017-09-16T15:46:22.383Z,2.37
2017-09-16T15:48:50.106Z,3.70
2017-09-16T15:51:17.830Z,2.78
2017-09-16T15:53:45.559Z,2.28
2017-09-16T15:56:13.276Z,2.25
2017-09-16T15:58:40.995Z,2.37
2017-09-16T16:01:08.718Z,2.67
2017-09-16T16:03:37.201Z,2.50
2017-09-16T16:06:05.692Z,2.50
2017-09-16T16:08:33.415Z,2.70
2017-09-16T16:11:01.142Z,2.78
2017-09-16T16:13:28.862Z,2.55
2017-09-16T16:15:57.353Z,2.20
2017-09-16T16:18:25.836Z,1.80
2017-09-16T16:20:54.345Z,2.30
2017-09-16T16:23:22.973Z,2.08
2017-09-16T16:25:50.693Z,2.58
2017-09-16T16:28:18.407Z,2.40
2017-09-16T16:30:47.447Z,2.05
2017-09-16T16:33:16.815Z,2.62
2017-09-16T16:35:46.365Z,2.67
2017-09-16T16:38:16.190Z,2.62
2017-09-16T16:40:45.052Z,2.42
2017-09-16T16:43:12.865Z,2.65
2017-09-16T16:45:47.591Z,1.90
2017-09-16T16:48:15.435Z,2.35
2017-09-16T16:50:45.235Z,2.05
2017-09-16T16:53:12.954Z,2.25
2017-09-16T16:55:42.156Z,2.40
2017-09-16T16:58:09.902Z,2.10
2017-09-16T17:00:37.689Z,2.67
2017-09-16T17:03:06.675Z,3.30
2017-09-16T17:05:34.393Z,2.95
2017-09-16T17:08:02.530Z,3.83
2017-09-16T17:10:30.286Z,3.50
2017-09-16T17:12:58.116Z,3.60
2017-09-16T17:15:25.830Z,6.90
2017-09-16T17:17:54.313Z,6.80
2017-09-16T17:20:22.797Z,5.72
2017-09-16T17:22:50.560Z,3.70
2017-09-16T17:25:26.717Z,3.87
2017-09-16T17:27:57.216Z,4.20
2017-09-16T17:30:29.003Z,2.85
2017-09-16T17:33:00.621Z,2.97
2017-09-16T17:35:31.821Z,2.90
2017-09-16T17:38:03.170Z,2.60
2017-09-16T17:40:34.246Z,2.97
2017-09-16T17:43:07.782Z,3.08
2017-09-16T17:45:39.463Z,3.80
2017-09-16T17:48:11.580Z,3.47
2017-09-16T17:50:43.376Z,3.42
2017-09-16T17:53:15.739Z,4.10
2017-09-16T17:55:46.378Z,3.58
2017-09-16T17:58:17.025Z,5.00
2017-09-16T18:00:47.265Z,5.65
2017-09-16T18:03:16.787Z,5.18
2017-09-16T18:05:46.496Z,5.35
2017-09-16T18:08:15.914Z,5.12
2017-09-16T18:10:47.329Z,5.18
2017-09-16T18:13:19.533Z,4.30
2017-09-16T18:15:50.560Z,5.22
2017-09-16T18:18:21.483Z,6.25
2017-09-16T18:20:53.141Z,6.03
2017-09-16T18:23:24.919Z,7.10
2017-09-16T18:25:56.285Z,6.30
2017-09-16T18:28:27.639Z,4.87
2017-09-16T18:30:58.353Z,3.53
2017-09-16T18:33:28.685Z,4.00
2017-09-16T18:35:59.362Z,4.32
2017-09-16T18:38:30.740Z,3.95
2017-09-16T18:41:01.045Z,4.20
2017-09-16T18:43:29.523Z,3.67
2017-09-16T18:46:02.906Z,4.15
2017-09-16T18:48:33.734Z,4.50
2017-09-16T18:51:04.820Z,4.05
2017-09-16T18:53:36.311Z,3.35
2017-09-16T18:56:08.626Z,4.03
2017-09-16T18:58:40.730Z,3.20
2017-09-16T19:01:12.175Z,3.97
2017-09-16T19:03:43.539Z,3.60
2017-09-16T19:06:13.714Z,3.37
2017-09-16T19:08:45.193Z,3.58
2017-09-16T19:11:18.759Z,3.50
2017-09-16T19:13:49.904Z,3.37
2017-09-16T19:16:21.336Z,3.33
2017-09-16T19:18:51.926Z,3.75
2017-09-16T19:21:22.799Z,4.15
2017-09-16T19:23:52.059Z,3.20
2017-09-16T19:26:22.781Z,3.58
2017-09-16T19:28:54.642Z,4.25
2017-09-16T19:31:25.438Z,3.90
2017-09-16T19:33:56.153Z,4.22
2017-09-16T19:36:30.419Z,3.80
2017-09-16T19:39:02.597Z,3.28
2017-09-16T19:41:34.330Z,4.45
2017-09-16T19:44:06.921Z,4.82
2017-09-16T19:46:39.981Z,4.62
2017-09-16T19:49:12.100Z,4.12
2017-09-16T19:51:44.603Z,5.07
2017-09-16T19:54:15.290Z,4.05
2017-09-16T19:56:43.881Z,3.90
2017-09-16T19:59:11.674Z,5.15
2017-09-16T20:01:39.434Z,4.50
2017-09-16T20:04:07.196Z,4.53
2017-09-16T20:06:35.552Z,4.95
2017-09-16T20:09:03.594Z,3.50
2017-09-16T20:11:31.311Z,4.25
2017-09-16T20:13:59.035Z,4.50
2017-09-16T20:16:27.787Z,3.92
2017-09-16T20:18:55.502Z,4.62
2017-09-16T20:21:23.287Z,4.10
2017-09-16T20:23:51.006Z,3.50
2017-09-16T20:26:18.726Z,3.60
2017-09-16T20:28:46.451Z,3.60
2017-09-16T20:31:14.930Z,4.95
2017-09-16T20:33:43.462Z,4.80
2017-09-16T20:36:12.372Z,4.80
2017-09-16T20:38:41.292Z,5.32
2017-09-16T20:41:09.776Z,4.45
2017-09-16T20:43:38.258Z,5.20
2017-09-16T20:46:06.738Z,4.37
2017-09-16T20:48:35.215Z,5.05
2017-09-16T20:51:03.708Z,4.07
2017-09-16T20:53:32.185Z,3.92
2017-09-16T20:56:00.671Z,4.87
2017-09-16T20:58:29.152Z,4.30
2017-09-16T21:00:57.639Z,4.30
2017-09-16T21:03:25.396Z,4.05
2017-09-16T21:05:53.877Z,4.60
2017-09-16T21:08:22.416Z,5.78
2017-09-16T21:10:50.138Z,6.25
2017-09-16T21:13:17.855Z,5.90
2017-09-16T21:15:45.606Z,5.00
2017-09-16T21:18:13.319Z,4.70
2017-09-16T21:20:41.845Z,3.95
2017-09-16T21:23:09.570Z,4.15
2017-09-16T21:25:38.084Z,5.07
2017-09-16T21:28:05.789Z,4.68
2017-09-16T21:30:33.521Z,4.18
2017-09-16T21:33:01.227Z,5.47
2017-09-16T21:35:28.946Z,4.75
2017-09-16T21:37:56.668Z,5.40
2017-09-16T21:40:25.153Z,5.00
2017-09-16T21:42:53.655Z,4.82
2017-09-16T21:45:21.371Z,4.05
2017-09-16T21:47:49.082Z,3.67
2017-09-16T21:50:16.811Z,4.70
2017-09-16T21:52:45.304Z,4.07
2017-09-16T21:55:13.786Z,4.90
2017-09-16T21:57:42.266Z,4.28
2017-09-16T22:00:10.782Z,5.45
2017-09-16T22:02:38.506Z,4.75
2017-09-16T22:05:06.995Z,3.83
2017-09-16T22:07:35.485Z,3.97
2017-09-16T22:10:03.255Z,4.62
2017-09-16T22:12:30.965Z,3.92
2017-09-16T22:14:58.677Z,3.90
2017-09-16T22:17:27.152Z,4.18
2017-09-16T22:20:01.898Z,3.85
2017-09-16T22:22:30.403Z,4.68
2017-09-16T22:24:58.125Z,4.85
2017-09-16T22:27:26.604Z,4.57
2017-09-16T22:29:55.078Z,4.90
2017-09-16T22:32:22.785Z,4.80
2017-09-16T22:34:50.507Z,4.40
2017-09-16T22:37:18.999Z,4.35
2017-09-16T22:39:47.510Z,3.72
2017-09-16T22:42:15.275Z,4.60
2017-09-16T22:44:42.977Z,4.45
2017-09-16T22:47:10.697Z,4.93
2017-09-16T22:49:38.417Z,4.60
2017-09-16T22:52:06.123Z,4.22
2017-09-16T22:54:33.839Z,4.97
2017-09-16T22:57:01.550Z,4.72
2017-09-16T22:59:29.262Z,5.37
2017-09-16T23:01:56.991Z,4.50
2017-09-16T23:06:58.745Z,5.20
2017-09-16T23:09:26.463Z,6.55
2017-09-16T23:11:54.178Z,5.45
2017-09-16T23:14:21.899Z,4.53
2017-09-16T23:16:49.611Z,4.47
2017-09-16T23:19:17.347Z,3.60
2017-09-16T23:21:45.839Z,2.90
2017-09-16T23:24:14.319Z,2.45
2017-09-16T23:26:42.803Z,4.37
2017-09-16T23:29:11.284Z,5.87
2017-09-16T23:31:38.997Z,4.47
2017-09-16T23:34:06.713Z,4.80
2017-09-16T23:36:34.434Z,4.40
2017-09-16T23:39:02.152Z,3.58
2017-09-16T23:41:29.896Z,3.15
2017-09-16T23:43:58.390Z,3.25
2017-09-16T23:46:26.107Z,3.30
2017-09-16T23:48:53.824Z,4.20
2017-09-16T23:51:21.564Z,4.15
2017-09-16T23:53:50.056Z,4.43
2017-09-16T23:56:18.530Z,4.62
2017-09-16T23:58:47.011Z,5.10
